Time;durP1;ratioP1;P1;durP2;ratioP2;P2;SDS_P1;SDS_P2;PMS_P1;PMS_P2;Temp;Humidity;BMP_temperature;BMP_pressure;BME280_temperature;BME280_humidity;BME280_pressure;Samples;Min_cycle;Max_cycle;Signal;HPM_P1;HPM_P2
2022/02/05 00:02:49;;;;;;;31.35;21.95;;;;;;;0.32;100.00;100491.50;5031000;28;20160;-67
2022/02/05 00:05:18;;;;;;;35.42;22.80;;;;;;;0.42;100.00;100505.88;5031417;28;20094;-67
2022/02/05 00:07:52;;;;;;;35.70;22.23;;;;;;;0.48;100.00;100508.50;5030935;28;20447;-68
2022/02/05 00:41:00;;;;;;;44.38;28.05;;;;;;;0.79;100.00;100477.47;5031135;28;20088;-67
2022/02/05 00:43:17;;;;;;;40.35;26.83;;;;;;;0.95;100.00;100496.97;5027383;28;20092;-68
2022/02/05 00:45:49;;;;;;;45.97;28.40;;;;;;;0.95;100.00;100484.47;5030831;28;20033;-68
2022/02/05 00:48:16;;;;;;;43.40;28.13;;;;;;;0.66;100.00;100466.38;5030680;28;20057;-68
2022/02/05 00:50:48;;;;;;;46.20;28.98;;;;;;;0.70;100.00;100468.13;5012854;28;20427;-68
2022/02/05 00:53:37;;;;;;;48.10;30.42;;;;;;;0.30;100.00;100483.13;5029563;28;20555;-68
2022/02/05 00:58:39;;;;;;;45.17;29.63;;;;;;;0.25;100.00;100483.84;5030728;28;20033;-67
2022/02/05 01:03:41;;;;;;;42.97;27.63;;;;;;;0.43;100.00;100474.25;4789051;26;20057;-68
2022/02/05 01:06:08;;;;;;;40.50;27.25;;;;;;;0.37;100.00;100482.47;4337531;28;9999902;-68
2022/02/05 01:08:35;;;;;;;41.95;27.73;;;;;;;-0.21;100.00;100452.88;5032544;28;20037;-67
2022/02/05 01:11:00;;;;;;;39.90;27.55;;;;;;;0.44;100.00;100463.41;5032543;28;20029;-67
2022/02/05 01:13:28;;;;;;;44.22;28.92;;;;;;;-0.46;100.00;100444.78;5050531;28;20033;-67
2022/02/05 01:18:26;;;;;;;49.85;31.95;;;;;;;0.34;100.00;100467.38;5030426;28;20033;-67
2022/02/05 01:21:13;;;;;;;69.53;40.45;;;;;;;-0.06;100.00;100465.69;5030624;28;20411;-66
2022/02/05 01:24:00;;;;;;;48.97;32.05;;;;;;;-0.05;100.00;100429.91;5016268;28;20030;-66
2022/02/05 01:26:37;;;;;;;36.15;25.70;;;;;;;-0.22;100.00;100471.13;5034423;28;20053;-66
2022/02/05 01:30:00;;;;;;;35.65;23.98;;;;;;;0.02;100.00;100440.84;5042214;28;20040;-66
2022/02/05 01:31:54;;;;;;;36.80;24.90;;;;;;;-0.05;100.00;100464.88;5042759;28;20494;-65
2022/02/05 01:34:42;;;;;;;40.42;27.35;;;;;;;0.08;100.00;100475.16;5054020;28;20548;-66
2022/02/05 01:58:24;;;;;;;40.20;25.95;;;;;;;-0.65;100.00;100475.94;5053595;28;20033;-66
2022/02/05 02:11:43;;;;;;;35.95;24.58;;;;;;;-0.65;100.00;100447.66;5053521;28;20166;-66
2022/02/05 02:24:19;;;;;;;41.15;25.42;;;;;;;-1.24;100.00;100422.03;5052889;28;20155;-66
2022/02/05 02:30:01;;;;;;;38.20;24.35;;;;;;;-1.31;100.00;100459.22;5053116;28;20037;-66
2022/02/05 02:32:14;;;;;;;44.75;25.67;;;;;;;-0.92;100.00;100445.31;5052115;28;20033;-67
2022/02/05 02:34:45;;;;;;;42.05;26.40;;;;;;;-1.16;100.00;100417.25;5051933;28;20099;-67
2022/02/05 02:37:16;;;;;;;42.90;25.90;;;;;;;-1.29;100.00;100406.13;5052708;28;20029;-67
2022/02/05 02:42:13;;;;;;;44.65;25.67;;;;;;;-0.81;100.00;100425.63;5052681;28;20029;-67
2022/02/05 02:44:39;;;;;;;40.60;25.25;;;;;;;-1.24;100.00;100448.59;5034424;28;20128;-66
2022/02/05 02:47:04;;;;;;;38.65;24.83;;;;;;;-0.93;100.00;100416.16;5034742;28;20115;-67
2022/02/05 02:50:17;;;;;;;38.80;24.85;;;;;;;-0.90;100.00;100457.03;5052426;28;20025;-66
2022/02/05 02:58:02;;;;;;;35.90;23.70;;;;;;;-0.78;100.00;100436.53;5052517;28;20143;-66
2022/02/05 03:00:27;;;;;;;37.53;25.85;;;;;;;-0.75;100.00;100451.53;5052685;28;20035;-66
2022/02/05 03:02:54;;;;;;;48.13;31.80;;;;;;;-1.12;100.00;100434.81;5052425;28;20052;-66
2022/02/05 03:05:20;;;;;;;47.55;29.30;;;;;;;-0.66;100.00;100460.91;5052138;28;20414;-66
2022/02/05 03:07:46;;;;;;;46.60;29.75;;;;;;;-1.00;100.00;100456.72;5052160;28;20415;-67
2022/02/05 03:10:11;;;;;;;47.00;31.15;;;;;;;-0.55;100.00;100409.59;5034366;28;20025;-66
2022/02/05 03:12:37;;;;;;;48.13;30.80;;;;;;;-0.81;100.00;100463.88;5052145;28;20029;-66
2022/02/05 03:15:04;;;;;;;45.38;31.05;;;;;;;-0.69;100.00;100466.66;5033823;28;20033;-66
2022/02/05 03:17:38;;;;;;;54.72;34.60;;;;;;;-1.30;100.00;100469.25;5051913;28;20475;-66
2022/02/05 03:20:04;;;;;;;82.47;44.78;;;;;;;-1.04;100.00;100427.53;5052129;28;20029;-67
2022/02/05 03:22:30;;;;;;;87.68;48.72;;;;;;;-1.18;100.00;100429.69;5052085;28;20048;-65
2022/02/05 03:24:55;;;;;;;89.18;47.53;;;;;;;-1.09;100.00;100439.88;5034122;28;20094;-67
2022/02/05 03:27:21;;;;;;;65.00;38.40;;;;;;;-1.29;100.00;100425.22;5034150;28;20037;-67
2022/02/05 03:29:49;;;;;;;50.50;31.38;;;;;;;-1.18;100.00;100441.28;5033922;28;20041;-65
2022/02/05 03:32:16;;;;;;;61.40;34.72;;;;;;;-0.64;100.00;100460.16;5051808;28;20025;-67
2022/02/05 03:34:42;;;;;;;51.72;31.30;;;;;;;-0.94;100.00;100445.28;5051270;28;20037;-66
2022/02/05 03:37:07;;;;;;;48.60;32.03;;;;;;;-1.08;100.00;100455.69;5033762;28;20044;-67
2022/02/05 03:39:33;;;;;;;50.95;32.80;;;;;;;-1.14;100.00;100455.53;5051482;28;20051;-66
2022/02/05 03:41:59;;;;;;;48.60;32.30;;;;;;;-1.55;100.00;100391.28;5051711;28;20597;-67
2022/02/05 03:44:25;;;;;;;47.55;31.38;;;;;;;-0.99;100.00;100456.78;5051572;28;20174;-67
2022/02/05 03:46:53;;;;;;;48.47;32.08;;;;;;;-1.12;100.00;100454.78;5051123;28;20514;-66
2022/02/05 03:49:19;;;;;;;50.35;32.10;;;;;;;-1.13;100.00;100448.09;5033404;28;20060;-67
2022/02/05 03:51:46;;;;;;;55.05;34.10;;;;;;;-1.66;100.00;100412.56;5033257;28;20058;-67
2022/02/05 03:54:12;;;;;;;51.40;31.70;;;;;;;-1.26;100.00;100382.91;5051432;28;20036;-66
2022/02/05 03:56:38;;;;;;;49.10;30.33;;;;;;;-0.50;100.00;100431.38;5033540;28;20128;-66
2022/02/05 03:59:04;;;;;;;47.30;29.23;;;;;;;-1.21;100.00;100413.81;5033360;28;20478;-66
2022/02/05 04:01:29;;;;;;;51.22;32.25;;;;;;;-1.29;100.00;100436.03;5033371;28;20120;-68
2022/02/05 04:03:55;;;;;;;47.67;30.88;;;;;;;-1.16;100.00;100403.13;5050845;28;20072;-66
2022/02/05 04:06:20;;;;;;;52.25;33.08;;;;;;;-1.05;100.00;100428.34;5051235;28;20033;-67
2022/02/05 04:08:47;;;;;;;51.42;31.88;;;;;;;-1.09;100.00;100424.09;5050822;28;20033;-67
2022/02/05 04:11:30;;;;;;;49.70;29.85;;;;;;;-1.08;100.00;100428.25;5033170;28;20087;-67
2022/02/05 04:16:40;;;;;;;40.83;25.95;;;;;;;-1.04;100.00;100430.88;5051227;28;20039;-67
2022/02/05 04:19:05;;;;;;;43.90;28.38;;;;;;;-1.04;100.00;100422.53;5032657;28;20036;-66
2022/02/05 04:21:32;;;;;;;44.15;28.00;;;;;;;-1.26;100.00;100402.84;5033256;28;20063;-66
2022/02/05 04:24:00;;;;;;;46.05;29.73;;;;;;;-1.03;100.00;100415.09;5032922;28;20032;-67
2022/02/05 04:26:26;;;;;;;36.20;25.20;;;;;;;-1.28;100.00;100387.84;5032965;28;20484;-68
2022/02/05 04:28:52;;;;;;;36.70;25.05;;;;;;;-0.71;100.00;100377.63;5032742;28;20103;-67
2022/02/05 04:31:17;;;;;;;44.22;28.45;;;;;;;-0.75;100.00;100396.66;5032922;28;20029;-67
2022/02/05 04:33:43;;;;;;;70.50;41.65;;;;;;;-0.83;100.00;100430.56;5050691;28;20033;-67
2022/02/05 04:36:09;;;;;;;86.88;55.15;;;;;;;-1.19;100.00;100410.50;5050725;28;20025;-66
2022/02/05 04:38:36;;;;;;;91.82;59.00;;;;;;;-1.19;100.00;100442.94;5050934;28;20487;-66
2022/02/05 04:41:09;;;;;;;76.88;47.92;;;;;;;-1.40;100.00;100394.16;5050473;28;20535;-67
2022/02/05 05:12:03;;;;;;;39.17;24.73;;;;;;;-1.68;100.00;100437.44;5030566;28;20060;-67
2022/02/05 05:19:56;;;;;;;60.70;35.28;;;;;;;-2.10;100.00;100428.75;5030911;28;20092;-69
2022/02/05 05:22:22;;;;;;;56.70;34.78;;;;;;;-2.19;100.00;100449.22;5013281;28;20112;-67
2022/02/05 05:24:47;;;;;;;54.35;36.30;;;;;;;-2.25;100.00;100453.16;5012750;28;20475;-69
2022/02/05 05:27:12;;;;;;;57.85;37.58;;;;;;;-2.35;100.00;100402.25;5030516;28;20030;-69
2022/02/05 05:29:38;;;;;;;61.17;36.67;;;;;;;-2.30;100.00;100434.75;5012826;28;20475;-69
2022/02/05 05:32:04;;;;;;;99.95;63.70;;;;;;;-1.97;100.00;100445.72;5030375;28;20025;-69
2022/02/05 05:34:30;;;;;;;54.03;34.70;;;;;;;-1.98;100.00;100457.31;5030442;28;20041;-69
2022/02/05 05:36:56;;;;;;;49.00;35.10;;;;;;;-2.34;100.00;100423.88;5013094;28;20029;-69
2022/02/05 05:39:22;;;;;;;48.28;33.60;;;;;;;-2.10;100.00;100446.16;5012705;28;20025;-69
2022/02/05 05:41:47;;;;;;;51.63;33.65;;;;;;;-2.06;100.00;100455.41;5030777;28;20420;-69
2022/02/05 05:47:16;;;;;;;52.13;36.03;;;;;;;-1.90;100.00;100465.84;5030320;28;20523;-69
2022/02/05 05:50:05;;;;;;;55.38;36.50;;;;;;;-1.89;100.00;100432.69;5030010;28;20037;-68
2022/02/05 05:52:31;;;;;;;78.80;51.55;;;;;;;-1.46;100.00;100444.69;5029972;28;20128;-69
2022/02/05 05:54:57;;;;;;;97.22;64.57;;;;;;;-1.59;100.00;100431.88;5030251;28;20124;-69
2022/02/05 05:57:22;;;;;;;84.55;52.67;;;;;;;-0.73;100.00;100477.38;5012780;28;20068;-69
2022/02/05 05:59:48;;;;;;;96.88;62.08;;;;;;;0.32;100.00;100480.69;5012435;28;20065;-69
2022/02/05 06:02:13;;;;;;;82.88;55.10;;;;;;;1.16;100.00;100436.41;5017849;28;20046;-68
2022/02/05 06:04:39;;;;;;;88.60;58.05;;;;;;;1.58;100.00;100472.19;5032121;28;20021;-68
2022/02/05 06:07:04;;;;;;;85.22;54.97;;;;;;;1.78;100.00;100475.84;5031924;28;20388;-68
2022/02/05 06:09:30;;;;;;;116.40;70.28;;;;;;;2.34;100.00;100505.06;5051379;28;20033;-68
2022/02/05 06:11:55;;;;;;;100.28;63.88;;;;;;;3.09;100.00;100509.34;5035682;28;20071;-69
2022/02/05 06:14:26;;;;;;;66.63;45.88;;;;;;;4.01;100.00;100505.09;5053735;28;20033;-69
2022/02/05 06:16:58;;;;;;;53.72;38.35;;;;;;;2.42;100.00;100522.72;5036049;28;20024;-69
2022/02/05 06:19:23;;;;;;;52.88;38.20;;;;;;;4.11;100.00;100502.66;5053850;28;20036;-70
2022/02/05 06:21:49;;;;;;;68.18;46.90;;;;;;;3.61;100.00;100486.34;5035841;28;20082;-71
2022/02/05 06:24:14;;;;;;;73.13;49.90;;;;;;;4.72;100.00;100516.41;5053377;28;20487;-69
2022/02/05 06:26:40;;;;;;;76.53;50.83;;;;;;;4.78;100.00;100510.53;5053757;28;20056;-70
2022/02/05 06:29:06;;;;;;;54.47;40.17;;;;;;;3.30;100.00;100539.69;5035649;28;20032;-69
2022/02/05 06:31:31;;;;;;;62.90;44.28;;;;;;;3.75;100.00;100530.03;5053413;28;20467;-71
2022/02/05 06:33:57;;;;;;;67.82;48.63;;;;;;;4.70;100.00;100520.59;5053131;28;20039;-69
2022/02/05 06:36:22;;;;;;;113.32;73.57;;;;;;;5.25;100.00;100484.66;5053211;28;20048;-70
2022/02/05 06:38:48;;;;;;;122.65;75.70;;;;;;;5.82;100.00;100490.56;5035288;28;20025;-70
2022/02/05 06:41:14;;;;;;;137.65;82.07;;;;;;;4.96;100.00;100510.63;5053547;28;20083;-68
2022/02/05 06:43:40;;;;;;;113.40;69.90;;;;;;;5.29;100.00;100496.41;5035793;28;20061;-69
2022/02/05 06:46:05;;;;;;;95.13;62.67;;;;;;;6.54;100.00;100503.06;5053074;28;20115;-70
2022/02/05 06:48:40;;;;;;;60.30;41.88;;;;;;;4.95;100.00;100509.75;5052968;28;20027;-69
2022/02/05 06:51:05;;;;;;;54.97;40.53;;;;;;;4.69;100.00;100503.81;5052816;28;20040;-70
2022/02/05 06:53:30;;;;;;;56.33;42.20;;;;;;;5.57;100.00;100507.38;5053006;28;20127;-70
2022/02/05 06:55:56;;;;;;;108.68;73.70;;;;;;;5.31;100.00;100465.34;5035213;28;20032;-70
2022/02/05 06:58:21;;;;;;;155.20;96.65;;;;;;;7.26;100.00;100460.59;5053445;28;20021;-70
2022/02/05 07:00:47;;;;;;;73.35;55.33;;;;;;;6.36;100.00;100495.53;5052708;28;20028;-70
2022/02/05 07:03:16;;;;;;;81.10;55.53;;;;;;;7.45;100.00;100457.06;5053035;28;20428;-69
2022/02/05 07:05:42;;;;;;;76.63;57.40;;;;;;;6.96;100.00;100451.50;5035229;28;20427;-70
2022/02/05 07:08:08;;;;;;;56.03;44.03;;;;;;;6.42;100.00;100487.94;5052701;28;20040;-68
2022/02/05 07:10:33;;;;;;;43.45;34.00;;;;;;;5.45;100.00;100486.38;5052885;28;20510;-70
2022/02/05 07:13:19;;;;;;;43.30;32.15;;;;;;;4.43;100.00;100497.81;5034860;28;20108;-70
2022/02/05 07:18:34;;;;;;;39.70;28.08;;;;;;;5.34;100.00;100493.06;5052811;28;20033;-69
2022/02/05 07:21:14;;;;;;;33.13;24.95;;;;;;;4.04;100.00;100500.09;5033658;28;20087;-70
2022/02/05 07:23:59;;;;;;;55.85;36.28;;;;;;;2.63;100.00;100516.31;5034378;28;20029;-71
2022/02/05 07:29:15;;;;;;;47.85;34.10;;;;;;;2.56;100.00;100514.56;5052541;28;20040;-69
2022/02/05 07:31:54;;;;;;;75.10;45.90;;;;;;;3.03;100.00;100479.13;5052626;28;20037;-70
2022/02/05 07:34:22;;;;;;;34.33;25.67;;;;;;;1.18;100.00;100482.34;5052718;28;20029;-71
2022/02/05 07:36:49;;;;;;;35.13;26.42;;;;;;;1.97;100.00;100512.03;5052441;28;20043;-70
2022/02/05 07:39:15;;;;;;;41.25;28.42;;;;;;;2.50;100.00;100496.06;5034111;28;20029;-72
2022/02/05 07:41:42;;;;;;;32.95;24.75;;;;;;;2.91;100.00;100506.63;5033394;28;20115;-69
2022/02/05 07:44:15;;;;;;;55.05;34.97;;;;;;;2.39;100.00;100462.50;5034284;28;20509;-69
2022/02/05 07:46:47;;;;;;;45.92;28.40;;;;;;;3.86;100.00;100497.47;5052000;28;20033;-70
2022/02/05 07:49:16;;;;;;;39.72;27.13;;;;;;;2.63;100.00;100467.81;5034459;28;20033;-72
2022/02/05 07:51:42;;;;;;;42.03;29.60;;;;;;;3.67;100.00;100481.38;5052592;28;20075;-75
2022/02/05 07:54:11;;;;;;;35.17;25.48;;;;;;;4.10;100.00;100459.91;5034414;28;20582;-71
2022/02/05 07:56:47;;;;;;;52.45;39.53;;;;;;;2.59;100.00;100476.13;5052133;28;20025;-69
2022/02/05 07:59:14;;;;;;;40.85;30.52;;;;;;;2.85;100.00;100453.84;5034126;28;20064;-71
2022/02/05 08:01:40;;;;;;;39.50;28.08;;;;;;;3.22;100.00;100494.41;5033835;28;20055;-69
2022/02/05 08:04:06;;;;;;;37.08;26.75;;;;;;;2.31;100.00;100489.13;5034319;28;20029;-71
2022/02/05 08:06:34;;;;;;;38.80;29.13;;;;;;;3.88;100.00;100461.41;5034196;28;20028;-75
2022/02/05 08:09:03;;;;;;;107.50;46.83;;;;;;;3.63;100.00;100477.16;5052026;28;20123;-71
2022/02/05 08:11:39;;;;;;;86.13;40.70;;;;;;;4.02;100.00;100469.88;5034123;28;20032;-70
2022/02/05 08:14:08;;;;;;;41.00;27.02;;;;;;;3.79;100.00;100455.50;5033804;28;20067;-69
2022/02/05 08:19:06;;;;;;;32.33;24.35;;;;;;;3.68;100.00;100442.00;5051484;28;20029;-71
2022/02/05 08:21:32;;;;;;;35.92;24.60;;;;;;;4.03;100.00;100480.81;5051902;28;20083;-75
2022/02/05 08:23:57;;;;;;;33.63;23.48;;;;;;;4.06;100.00;100481.66;5051735;28;20033;-72
2022/02/05 08:26:28;;;;;;;41.33;28.20;;;;;;;3.24;100.00;100482.69;5033536;28;20419;-74
2022/02/05 08:28:54;;;;;;;39.20;27.58;;;;;;;3.90;100.00;100476.53;5051654;28;20467;-71
2022/02/05 08:31:20;;;;;;;37.25;28.30;;;;;;;4.23;100.00;100476.72;5050887;28;20032;-72
2022/02/05 08:33:46;;;;;;;33.90;24.23;;;;;;;4.05;100.00;100474.09;5033092;28;20443;-69
2022/02/05 08:36:12;;;;;;;32.67;23.63;;;;;;;3.89;100.00;100482.38;5033166;28;20024;-69
2022/02/05 08:38:37;;;;;;;33.33;24.27;;;;;;;3.51;100.00;100482.94;5051124;28;20083;-69
2022/02/05 08:41:03;;;;;;;33.15;22.83;;;;;;;4.45;100.00;100480.19;5050432;28;20033;-67
2022/02/05 08:43:30;;;;;;;31.02;22.55;;;;;;;4.32;100.00;100439.88;5032586;28;20115;-69
2022/02/05 08:45:59;;;;;;;29.73;22.40;;;;;;;4.44;100.00;100471.78;5032716;28;20033;-69
2022/02/05 08:48:24;;;;;;;30.08;21.80;;;;;;;4.06;100.00;100483.34;5050680;28;20029;-69
2022/02/05 08:50:50;;;;;;;27.15;20.27;;;;;;;4.12;100.00;100450.69;5050849;28;20023;-68
2022/02/05 08:53:19;;;;;;;30.55;22.23;;;;;;;4.59;100.00;100481.94;5050787;28;20044;-68
2022/02/05 08:55:45;;;;;;;35.10;23.77;;;;;;;4.21;100.00;100491.81;5032309;28;20083;-67
2022/02/05 08:58:11;;;;;;;34.83;25.20;;;;;;;3.68;100.00;100483.09;5050852;28;20535;-69
2022/02/05 09:00:46;;;;;;;31.55;23.58;;;;;;;3.54;100.00;100457.81;5050353;28;20107;-68
2022/02/05 09:03:21;;;;;;;34.90;28.20;;;;;;;3.70;100.00;100480.56;5042795;28;20053;-70
2022/02/05 09:05:48;;;;;;;32.53;25.13;;;;;;;3.64;100.00;100457.91;5051215;28;20090;-67
2022/02/05 09:08:50;;;;;;;34.63;25.50;;;;;;;3.82;100.00;100481.50;5049018;28;20128;-68
2022/02/05 09:11:16;;;;;;;52.33;28.58;;;;;;;4.35;100.00;100475.13;5047923;28;20091;-68
2022/02/05 09:16:14;;;;;;;36.63;26.02;;;;;;;4.23;100.00;100481.75;5050586;28;20032;-69
2022/02/05 09:18:42;;;;;;;42.97;29.77;;;;;;;4.33;100.00;100456.66;5048775;28;20029;-68
2022/02/05 09:21:07;;;;;;;84.40;41.00;;;;;;;5.72;100.00;100473.75;5050972;28;20033;-70
2022/02/05 09:23:38;;;;;;;37.65;27.05;;;;;;;4.16;100.00;100478.38;5049526;28;20029;-70
2022/02/05 09:26:04;;;;;;;31.75;23.75;;;;;;;4.71;100.00;100478.63;5049356;28;20033;-69
2022/02/05 09:28:29;;;;;;;33.05;24.92;;;;;;;3.58;100.00;100455.34;5050974;28;20102;-70
2022/02/05 09:33:35;;;;;;;32.47;24.65;;;;;;;4.17;100.00;100451.53;5050452;28;20032;-70
2022/02/05 09:36:00;;;;;;;39.30;26.85;;;;;;;4.98;100.00;100423.28;5050776;28;20036;-71
2022/02/05 09:38:26;;;;;;;37.70;25.75;;;;;;;4.91;100.00;100465.25;5049145;28;20025;-69
2022/02/05 09:40:51;;;;;;;30.90;21.85;;;;;;;4.67;100.00;100435.00;5049331;28;20048;-67
2022/02/05 09:43:31;;;;;;;55.42;32.42;;;;;;;4.03;100.00;100410.38;5052039;28;20499;-70
2022/02/05 09:45:57;;;;;;;47.70;28.17;;;;;;;5.15;100.00;100441.81;5054360;28;20173;-72
2022/02/05 09:48:23;;;;;;;38.80;29.08;;;;;;;5.48;100.00;100456.09;5054388;28;20025;-70
2022/02/05 09:50:49;;;;;;;35.33;26.05;;;;;;;4.99;100.00;100448.47;5054393;28;20029;-71
2022/02/05 09:53:19;;;;;;;33.80;22.42;;;;;;;6.23;100.00;100409.75;5053401;28;20025;-73
2022/02/05 09:55:46;;;;;;;33.70;25.73;;;;;;;5.39;100.00;100415.78;5053355;28;20410;-72
2022/02/05 09:58:13;;;;;;;31.20;22.08;;;;;;;6.38;100.00;100435.78;5053306;28;20128;-71
2022/02/05 10:00:38;;;;;;;31.98;23.75;;;;;;;6.24;100.00;100407.22;5054812;28;20035;-70
2022/02/05 10:03:22;;;;;;;27.60;22.02;;;;;;;5.65;100.00;100429.19;5054582;28;20077;-72
2022/02/05 10:06:13;;;;;;;33.97;27.30;;;;;;;6.42;100.00;100422.31;5054562;28;20028;-72
2022/02/05 10:08:44;;;;;;;28.80;22.83;;;;;;;6.56;100.00;100415.50;5054205;28;20032;-72
2022/02/05 10:11:09;;;;;;;27.80;22.23;;;;;;;6.88;100.00;100411.13;5054415;28;20029;-71
2022/02/05 10:13:35;;;;;;;32.97;25.55;;;;;;;7.19;100.00;100404.16;5053872;28;20029;-72
2022/02/05 10:16:00;;;;;;;39.10;28.50;;;;;;;7.07;100.00;100388.25;5041231;28;20112;-72
2022/02/05 10:18:33;;;;;;;30.02;22.48;;;;;;;6.49;100.00;100413.88;5034041;28;20029;-69
2022/02/05 10:21:08;;;;;;;31.27;24.52;;;;;;;6.84;100.00;100401.03;5032658;28;20479;-70
2022/02/05 10:23:33;;;;;;;27.55;21.13;;;;;;;5.90;100.00;100406.47;5032819;28;20034;-71
2022/02/05 10:26:00;;;;;;;26.58;20.50;;;;;;;6.85;100.00;100365.63;5034144;28;20036;-71
2022/02/05 10:28:25;;;;;;;29.85;22.48;;;;;;;7.03;100.00;100387.44;5033561;28;20029;-71
2022/02/05 10:30:53;;;;;;;27.15;22.38;;;;;;;6.86;100.00;100379.97;5034172;28;20075;-71
2022/02/05 10:43:55;;;;;;;34.67;23.88;;;;;;;8.03;100.00;100368.78;5034280;28;20055;-74
2022/02/05 10:46:21;;;;;;;27.70;22.65;;;;;;;7.47;100.00;100370.22;5033322;28;20120;-73
2022/02/05 10:48:47;;;;;;;33.70;24.27;;;;;;;7.76;100.00;100335.31;5032663;28;20037;-71
2022/02/05 10:51:13;;;;;;;30.23;22.77;;;;;;;8.07;100.00;100376.34;5031127;28;20115;-70
2022/02/05 10:53:51;;;;;;;54.30;27.30;;;;;;;8.35;100.00;100357.44;5031438;28;20034;-70
2022/02/05 10:59:35;;;;;;;33.80;23.35;;;;;;;8.37;100.00;100310.16;5031473;28;20021;-71
2022/02/05 11:07:21;;;;;;;32.20;25.13;;;;;;;8.79;100.00;100344.16;5052539;28;20052;-70
2022/02/05 11:09:52;;;;;;;35.85;27.30;;;;;;;8.60;100.00;100315.72;5051811;28;20089;-70
2022/02/05 11:20:22;;;;;;;29.92;24.20;;;;;;;9.37;100.00;100270.47;5052648;28;20115;-69
2022/02/05 11:23:02;;;;;;;27.10;21.35;;;;;;;9.11;100.00;100283.63;5052824;28;20036;-72
2022/02/05 11:25:31;;;;;;;26.98;22.35;;;;;;;9.33;100.00;100274.78;5052941;28;20036;-71
2022/02/05 11:27:56;;;;;;;28.73;23.02;;;;;;;9.78;100.00;100278.16;5052137;28;20033;-69
2022/02/05 11:30:34;;;;;;;29.90;21.88;;;;;;;10.19;100.00;100287.47;5052626;28;20573;-71
2022/02/05 11:33:05;;;;;;;25.83;20.83;;;;;;;9.09;100.00;100320.03;5052749;28;20039;-70
2022/02/05 11:38:09;;;;;;;30.85;25.83;;;;;;;10.21;100.00;100308.59;5052500;28;20029;-72
2022/02/05 11:40:41;;;;;;;28.70;22.00;;;;;;;10.22;100.00;100295.03;5052370;28;20039;-71
2022/02/05 11:43:27;;;;;;;36.65;29.83;;;;;;;9.78;100.00;100287.47;5034687;28;20147;-72
2022/02/05 11:46:13;;;;;;;30.15;24.85;;;;;;;9.96;100.00;100298.09;5052304;28;20098;-71
2022/02/05 11:48:47;;;;;;;30.02;25.20;;;;;;;10.40;100.00;100272.59;5034435;28;20474;-68
2022/02/05 11:51:14;;;;;;;30.77;25.42;;;;;;;10.53;100.00;100273.16;5052051;28;20063;-70
2022/02/05 11:53:58;;;;;;;26.23;20.27;;;;;;;10.65;100.00;100279.66;5033711;28;20037;-69
2022/02/05 11:57:06;;;;;;;37.60;27.05;;;;;;;10.88;100.00;100280.78;5033556;28;20025;-67
2022/02/05 12:00:00;;;;;;;35.45;26.23;;;;;;;10.48;100.00;100280.03;5050777;28;20029;-68
2022/02/05 12:02:56;;;;;;;25.55;20.08;;;;;;;10.24;100.00;100245.84;4986034;28;20045;-68
2022/02/05 12:05:33;;;;;;;26.35;21.17;;;;;;;10.84;100.00;100271.56;5029889;28;20028;-69
2022/02/05 12:08:04;;;;;;;30.60;24.05;;;;;;;10.86;100.00;100268.97;5029537;28;20072;-68
2022/02/05 12:10:35;;;;;;;24.85;20.33;;;;;;;11.33;100.00;100264.34;5031163;28;20545;-69
2022/02/05 12:13:19;;;;;;;25.25;20.67;;;;;;;11.34;100.00;100267.72;5031529;28;20411;-68
2022/02/05 12:15:47;;;;;;;20.77;18.02;;;;;;;10.86;100.00;100241.84;5029641;28;20037;-69
2022/02/05 12:20:56;;;;;;;24.40;19.38;;;;;;;10.66;100.00;100255.88;5030820;28;20419;-67
2022/02/05 12:23:42;;;;;;;25.50;19.90;;;;;;;11.48;100.00;100224.91;5030850;28;20060;-70
2022/02/05 12:26:07;;;;;;;25.15;20.25;;;;;;;12.08;100.00;100241.00;5031241;28;20029;-70
2022/02/05 12:28:38;;;;;;;25.45;20.85;;;;;;;12.08;100.00;100227.44;5030486;28;20036;-68
2022/02/05 12:31:16;;;;;;;32.13;26.45;;;;;;;12.33;100.00;100238.56;5029908;28;20075;-68
2022/02/05 12:33:42;;;;;;;33.95;23.88;;;;;;;12.68;100.00;100245.91;5030480;28;20083;-70
2022/02/05 12:36:07;;;;;;;20.67;17.40;;;;;;;11.92;100.00;100246.63;5029393;28;20033;-69
2022/02/05 12:38:46;;;;;;;22.85;19.02;;;;;;;12.62;100.00;100237.63;5030538;28;20131;-69
2022/02/05 12:41:12;;;;;;;26.02;19.75;;;;;;;12.76;100.00;100248.22;5029130;28;20041;-68
2022/02/05 12:43:58;;;;;;;29.52;24.70;;;;;;;12.29;100.00;100241.25;5030675;28;20099;-69
2022/02/05 12:46:29;;;;;;;32.08;21.55;;;;;;;13.10;100.00;100245.41;5029269;28;20035;-71
2022/02/05 12:49:01;;;;;;;;;;;;;;;12.49;100.00;100239.75;5030015;28;20056;-72
2022/02/05 12:51:28;;;;;;;27.95;21.70;;;;;;;12.28;100.00;100242.13;5030664;28;19913;-71
2022/02/05 12:54:05;;;;;;;31.35;23.33;;;;;;;12.68;100.00;100199.16;5029527;28;20415;-68
2022/02/05 12:56:35;;;;;;;27.35;23.48;;;;;;;12.16;98.71;100256.91;5029101;28;20033;-69
2022/02/05 12:59:04;;;;;;;32.33;28.20;;;;;;;13.01;97.46;100229.50;5030309;28;20029;-68
2022/02/05 13:01:31;;;;;;;21.83;18.55;;;;;;;12.73;98.39;100254.28;5030347;28;20026;-68
2022/02/05 13:04:14;;;;;;;23.98;19.23;;;;;;;12.80;96.45;100244.69;5028460;28;20068;-68
2022/02/05 13:06:40;;;;;;;18.92;16.27;;;;;;;12.57;99.29;100216.53;5029176;28;20037;-70
2022/02/05 13:09:20;;;;;;;21.70;17.98;;;;;;;12.28;96.82;100214.09;5028971;28;20030;-68
2022/02/05 13:11:46;;;;;;;28.35;18.65;;;;;;;13.18;94.38;100230.66;5028919;28;20103;-70
2022/02/05 13:14:11;;;;;;;25.98;19.05;;;;;;;12.96;98.48;100241.59;5028860;28;20463;-67
2022/02/05 13:16:39;;;;;;;24.00;18.13;;;;;;;13.51;93.59;100202.22;5028939;28;20067;-67
2022/02/05 13:19:24;;;;;;;25.23;16.58;;;;;;;13.16;94.50;100209.47;5032270;28;20448;-67
2022/02/05 13:25:05;;;;;;;15.30;12.73;;;;;;;11.95;100.00;100218.47;5031128;28;20040;-68
2022/02/05 13:28:05;;;;;;;20.05;16.25;;;;;;;12.60;94.49;100236.84;5033017;28;20029;-69
2022/02/05 13:36:36;;;;;;;18.73;15.75;;;;;;;13.75;94.08;100229.44;5032925;28;20080;-71
2022/02/05 13:41:33;;;;;;;16.80;15.00;;;;;;;14.67;75.80;100227.56;5033629;28;20474;-71
2022/02/05 13:44:00;;;;;;;24.25;16.55;;;;;;;15.17;71.83;100184.50;5034040;28;20026;-68
2022/02/05 13:46:25;;;;;;;21.25;18.52;;;;;;;15.96;67.68;100233.91;5033880;28;20030;-69
2022/02/05 13:48:51;;;;;;;23.60;16.58;;;;;;;16.26;68.42;100206.00;5033630;28;20116;-68
2022/02/05 13:51:17;;;;;;;16.48;14.73;;;;;;;14.48;69.19;100194.22;5033696;28;20057;-68
2022/02/05 13:53:58;;;;;;;17.80;14.95;;;;;;;14.29;70.96;100215.47;5033393;28;20064;-69
2022/02/05 13:56:23;;;;;;;17.50;14.60;;;;;;;15.55;71.08;100233.19;5032669;28;20133;-69
2022/02/05 13:58:50;;;;;;;17.05;14.38;;;;;;;15.32;70.86;100237.63;5033621;28;20112;-69
2022/02/05 14:01:33;;;;;;;13.73;11.45;;;;;;;15.34;69.61;100239.22;5033635;28;20083;-69
2022/02/05 14:04:25;;;;;;;16.80;13.70;;;;;;;16.47;66.17;100225.47;5053135;28;20049;-69
2022/02/05 14:06:58;;;;;;;41.78;29.27;;;;;;;15.82;63.53;100232.84;5053617;28;20087;-69
2022/02/05 14:09:25;;;;;;;26.50;18.38;;;;;;;14.54;71.29;100211.88;5053377;28;20487;-70
2022/02/05 14:11:53;;;;;;;15.27;12.27;;;;;;;14.95;72.92;100250.31;5052982;28;20103;-69
2022/02/05 14:14:30;;;;;;;17.73;12.25;;;;;;;14.84;67.88;100255.03;5053127;28;20091;-69
2022/02/05 14:16:56;;;;;;;16.67;12.00;;;;;;;15.62;65.56;100203.00;5052904;28;20024;-70
2022/02/05 14:19:23;;;;;;;12.73;11.38;;;;;;;14.40;70.17;100257.63;5053388;28;20057;-70
2022/02/05 14:21:50;;;;;;;21.38;15.65;;;;;;;15.05;70.86;100224.28;5035326;28;20037;-70
2022/02/05 14:24:24;;;;;;;22.42;16.00;;;;;;;15.05;68.60;100229.41;5035302;28;20509;-69
2022/02/05 14:26:56;;;;;;;20.45;16.25;;;;;;;15.57;66.85;100230.53;5053259;28;20033;-70
2022/02/05 14:29:22;;;;;;;21.00;15.60;;;;;;;14.70;74.50;100235.13;5052177;28;20118;-72